Time;durP1;ratioP1;P1;durP2;ratioP2;P2;SDS_P1;SDS_P2;PMS_P1;PMS_P2;Temp;Humidity;BMP_temperature;BMP_pressure;BME280_temperature;BME280_humidity;BME280_pressure;Samples;Min_cycle;Max_cycle;Signal;HPM_P1;HPM_P2
2023/08/16 00:01:26;;;;;;;3.10;1.90;;;;;;;;;;5009434;28;20060;-85
2023/08/16 00:03:52;;;;;;;2.28;1.58;;;;;;;;;;5002797;28;20429;-85
2023/08/16 00:06:18;;;;;;;2.58;1.90;;;;;;;;;;5005563;28;20030;-85
2023/08/16 00:08:44;;;;;;;1.70;1.40;;;;;;;;;;5005491;28;20022;-85
2023/08/16 00:11:10;;;;;;;2.38;1.80;;;;;;;;;;5006703;28;20161;-86
2023/08/16 00:13:36;;;;;;;3.42;2.10;;;;;;;;;;5007554;28;20030;-85
2023/08/16 00:16:02;;;;;;;3.45;1.98;;;;;;;;;;5008675;28;20068;-85
2023/08/16 00:18:29;;;;;;;2.38;1.90;;;;;;;;;;5008326;28;20029;-85
2023/08/16 00:20:55;;;;;;;2.80;2.10;;;;;;;;;;5003071;28;20069;-87
2023/08/16 00:23:21;;;;;;;7.10;4.22;;;;;;;;;;5006905;28;20034;-86
2023/08/16 00:25:47;;;;;;;5.80;3.78;;;;;;;;;;5008332;28;20560;-87
2023/08/16 00:28:13;;;;;;;4.05;2.92;;;;;;;;;;5004208;28;20490;-87
2023/08/16 00:30:39;;;;;;;4.93;2.53;;;;;;;;;;5004406;28;20426;-86
2023/08/16 00:33:05;;;;;;;6.32;2.38;;;;;;;;;;5006580;28;20014;-87
2023/08/16 00:35:31;;;;;;;5.93;2.95;;;;;;;;;;5008670;28;20513;-87
2023/08/16 00:37:58;;;;;;;6.00;2.83;;;;;;;;;;5016967;28;20363;-87
2023/08/16 00:40:24;;;;;;;3.85;2.80;;;;;;;;;;5010302;28;20025;-87
2023/08/16 00:42:50;;;;;;;2.97;2.10;;;;;;;;;;5008439;28;20523;-86
2023/08/16 00:45:16;;;;;;;2.83;2.38;;;;;;;;;;5010830;28;20037;-87
2023/08/16 00:47:42;;;;;;;4.70;2.78;;;;;;;;;;5008208;28;20034;-87
2023/08/16 00:50:09;;;;;;;6.43;2.30;;;;;;;;;;5009818;28;20073;-86
2023/08/16 00:52:35;;;;;;;3.22;2.17;;;;;;;;;;5006591;28;20022;-86
2023/08/16 00:55:02;;;;;;;2.88;2.08;;;;;;;;;;5009721;28;20438;-87
2023/08/16 00:57:28;;;;;;;3.35;2.15;;;;;;;;;;5008773;28;20053;-87
2023/08/16 00:59:54;;;;;;;2.75;2.22;;;;;;;;;;5003311;28;20053;-86
2023/08/16 01:02:20;;;;;;;3.70;2.33;;;;;;;;;;5010345;28;20033;-86
2023/08/16 01:04:47;;;;;;;2.78;1.80;;;;;;;;;;5007555;28;20168;-86
2023/08/16 01:07:14;;;;;;;4.18;2.33;;;;;;;;;;5005735;28;20033;-86
2023/08/16 01:09:40;;;;;;;4.00;2.40;;;;;;;;;;4998012;28;20486;-86
2023/08/16 01:12:06;;;;;;;5.50;2.08;;;;;;;;;;5007279;28;20080;-86
2023/08/16 01:14:45;;;;;;;3.08;2.22;;;;;;;;;;5007616;28;20409;-87
2023/08/16 01:17:12;;;;;;;4.40;1.80;;;;;;;;;;5006241;28;20018;-87
2023/08/16 01:19:39;;;;;;;2.90;1.95;;;;;;;;;;5008599;28;20113;-87
2023/08/16 01:22:23;;;;;;;3.45;2.33;;;;;;;;;;5006816;28;20080;-87
2023/08/16 01:25:08;;;;;;;2.10;1.83;;;;;;;;;;5006998;28;20025;-86
2023/08/16 01:27:34;;;;;;;2.80;1.92;;;;;;;;;;5005709;28;20022;-87
2023/08/16 01:30:00;;;;;;;2.17;1.70;;;;;;;;;;5006818;28;20072;-86
2023/08/16 01:32:28;;;;;;;2.22;1.80;;;;;;;;;;5007421;28;20041;-86
2023/08/16 01:34:54;;;;;;;2.58;1.77;;;;;;;;;;5007257;28;20100;-87
2023/08/16 01:37:20;;;;;;;2.47;1.80;;;;;;;;;;5008292;28;20507;-85
2023/08/16 01:39:49;;;;;;;2.30;1.80;;;;;;;;;;5006415;28;20554;-86
2023/08/16 01:42:17;;;;;;;2.08;1.70;;;;;;;;;;5007358;28;20052;-87
2023/08/16 01:44:45;;;;;;;7.18;2.08;;;;;;;;;;5008267;28;20030;-86
2023/08/16 01:47:12;;;;;;;3.75;2.50;;;;;;;;;;5006730;28;20163;-87
2023/08/16 01:49:38;;;;;;;3.08;1.98;;;;;;;;;;5005497;28;20034;-87
2023/08/16 01:52:04;;;;;;;3.70;2.10;;;;;;;;;;5005701;28;20030;-87
2023/08/16 01:54:31;;;;;;;3.72;2.05;;;;;;;;;;5004858;28;20030;-87
2023/08/16 01:56:57;;;;;;;2.65;2.13;;;;;;;;;;5005077;28;20124;-86
2023/08/16 01:59:23;;;;;;;3.97;2.67;;;;;;;;;;5002009;28;20822;-87
2023/08/16 02:01:48;;;;;;;2.72;2.00;;;;;;;;;;5006491;28;20124;-87
2023/08/16 02:04:15;;;;;;;2.75;1.83;;;;;;;;;;5006378;28;20026;-87
2023/08/16 02:06:41;;;;;;;4.93;2.28;;;;;;;;;;5008286;28;20037;-87
2023/08/16 02:09:06;;;;;;;2.20;1.65;;;;;;;;;;5005694;28;20041;-87
2023/08/16 02:11:32;;;;;;;2.03;1.75;;;;;;;;;;5005291;28;20021;-86
2023/08/16 02:13:58;;;;;;;2.72;1.92;;;;;;;;;;5004473;28;20034;-87
2023/08/16 02:16:25;;;;;;;3.13;2.08;;;;;;;;;;5006634;28;20025;-87
2023/08/16 02:18:52;;;;;;;4.90;2.15;;;;;;;;;;5006161;28;20041;-87
2023/08/16 02:21:18;;;;;;;2.40;1.90;;;;;;;;;;5003583;28;20091;-87
2023/08/16 02:23:44;;;;;;;2.20;2.00;;;;;;;;;;5008450;28;20044;-87
2023/08/16 02:26:10;;;;;;;1.90;1.70;;;;;;;;;;5006659;28;20029;-87
2023/08/16 02:28:36;;;;;;;2.97;1.83;;;;;;;;;;5002277;28;20034;-87
2023/08/16 02:31:05;;;;;;;1.83;1.58;;;;;;;;;;5006194;28;20026;-86
2023/08/16 02:33:32;;;;;;;2.53;2.30;;;;;;;;;;5006967;28;20104;-86
2023/08/16 02:35:58;;;;;;;2.67;2.08;;;;;;;;;;5010423;28;20037;-87
2023/08/16 02:38:24;;;;;;;3.17;1.77;;;;;;;;;;5006296;28;20030;-86
2023/08/16 02:40:50;;;;;;;2.58;2.00;;;;;;;;;;5007204;28;20117;-87
2023/08/16 02:43:16;;;;;;;2.42;1.95;;;;;;;;;;5008861;28;20061;-86
2023/08/16 02:45:42;;;;;;;4.35;2.25;;;;;;;;;;5006356;28;20034;-87
2023/08/16 02:48:08;;;;;;;3.40;1.90;;;;;;;;;;5009474;28;20034;-86
2023/08/16 02:50:34;;;;;;;2.58;1.98;;;;;;;;;;5008564;28;20385;-86
2023/08/16 02:53:00;;;;;;;2.75;1.83;;;;;;;;;;5005559;28;20112;-86
2023/08/16 02:55:26;;;;;;;4.95;2.47;;;;;;;;;;5010257;28;20107;-87
2023/08/16 02:57:52;;;;;;;3.00;2.40;;;;;;;;;;5012325;28;20026;-87
2023/08/16 03:00:18;;;;;;;3.50;2.00;;;;;;;;;;5006080;28;20041;-87
2023/08/16 03:02:45;;;;;;;2.30;2.00;;;;;;;;;;5007141;28;20564;-87
2023/08/16 03:05:11;;;;;;;3.20;2.00;;;;;;;;;;5009494;28;20510;-87
2023/08/16 03:07:37;;;;;;;3.13;2.72;;;;;;;;;;5008866;28;20037;-86
2023/08/16 03:10:04;;;;;;;3.92;2.53;;;;;;;;;;5003911;28;20690;-87
2023/08/16 03:12:30;;;;;;;4.05;2.53;;;;;;;;;;5002776;28;20109;-86
2023/08/16 03:14:55;;;;;;;2.97;2.38;;;;;;;;;;5009408;28;20017;-87
2023/08/16 03:17:22;;;;;;;3.67;2.47;;;;;;;;;;5007186;28;20034;-87
2023/08/16 03:19:48;;;;;;;3.58;2.38;;;;;;;;;;5007325;28;20025;-87
2023/08/16 03:22:14;;;;;;;3.45;2.17;;;;;;;;;;5009647;28;20406;-87
2023/08/16 03:24:40;;;;;;;2.72;2.00;;;;;;;;;;5006973;28;20018;-87
2023/08/16 03:27:06;;;;;;;2.92;2.17;;;;;;;;;;5008514;28;20513;-87
2023/08/16 03:29:32;;;;;;;4.82;2.55;;;;;;;;;;5008336;28;20026;-87
2023/08/16 03:31:58;;;;;;;4.97;2.42;;;;;;;;;;5007617;28;20026;-87
2023/08/16 03:34:24;;;;;;;3.35;2.70;;;;;;;;;;5008788;28;20026;-86
2023/08/16 03:36:50;;;;;;;3.88;2.72;;;;;;;;;;5011223;28;20410;-87
2023/08/16 03:39:16;;;;;;;3.50;2.30;;;;;;;;;;5009400;28;20029;-87
2023/08/16 03:41:42;;;;;;;3.60;2.70;;;;;;;;;;5006493;28;20417;-87
2023/08/16 03:44:08;;;;;;;3.83;2.40;;;;;;;;;;5008429;28;20026;-87
2023/08/16 03:46:34;;;;;;;3.47;2.65;;;;;;;;;;5007158;28;20542;-86
2023/08/16 03:49:00;;;;;;;4.25;2.60;;;;;;;;;;5007395;28;20025;-86
2023/08/16 03:51:26;;;;;;;5.25;2.35;;;;;;;;;;5005645;28;20111;-87
2023/08/16 03:53:52;;;;;;;4.35;2.30;;;;;;;;;;5007900;28;20021;-87
2023/08/16 03:56:18;;;;;;;6.72;2.78;;;;;;;;;;5009218;28;20030;-87
2023/08/16 03:58:44;;;;;;;3.45;2.72;;;;;;;;;;5007924;28;20072;-87
2023/08/16 04:01:11;;;;;;;2.85;2.22;;;;;;;;;;5007047;28;20045;-86
2023/08/16 04:03:37;;;;;;;5.88;2.83;;;;;;;;;;5006655;28;20318;-86
2023/08/16 04:06:10;;;;;;;4.45;2.40;;;;;;;;;;5012408;28;20033;-87
2023/08/16 04:08:36;;;;;;;3.58;2.80;;;;;;;;;;5005383;28;20453;-87
2023/08/16 04:11:02;;;;;;;3.80;2.33;;;;;;;;;;5007076;28;20033;-87
2023/08/16 04:13:28;;;;;;;3.08;2.70;;;;;;;;;;5005090;28;20033;-87
2023/08/16 04:15:54;;;;;;;3.83;2.70;;;;;;;;;;5008790;28;20026;-87
2023/08/16 04:18:20;;;;;;;4.28;2.83;;;;;;;;;;5007599;28;20116;-83
2023/08/16 04:20:46;;;;;;;3.38;2.55;;;;;;;;;;5011084;28;20034;-78
2023/08/16 04:23:12;;;;;;;4.35;2.75;;;;;;;;;;5005281;28;20371;-78
2023/08/16 04:25:38;;;;;;;3.58;2.70;;;;;;;;;;5010556;28;20148;-78
2023/08/16 04:28:04;;;;;;;3.50;2.58;;;;;;;;;;5008261;28;20105;-77
2023/08/16 04:30:30;;;;;;;3.67;2.33;;;;;;;;;;5007984;28;20052;-78
2023/08/16 04:32:56;;;;;;;5.65;2.70;;;;;;;;;;5006154;28;20017;-78
2023/08/16 04:35:22;;;;;;;4.68;3.03;;;;;;;;;;5008422;28;20030;-78
2023/08/16 04:37:48;;;;;;;3.92;2.40;;;;;;;;;;5007438;28;20025;-78
2023/08/16 04:40:18;;;;;;;3.13;2.40;;;;;;;;;;5007016;28;20033;-78
2023/08/16 04:42:44;;;;;;;5.15;2.95;;;;;;;;;;5002481;28;20049;-87
2023/08/16 04:45:10;;;;;;;2.80;2.50;;;;;;;;;;5003986;28;20022;-80
2023/08/16 04:47:36;;;;;;;4.22;2.67;;;;;;;;;;5007025;28;20033;-81
2023/08/16 04:50:06;;;;;;;2.72;2.15;;;;;;;;;;5008211;28;20037;-82
2023/08/16 04:52:32;;;;;;;4.90;2.80;;;;;;;;;;5006279;28;20022;-81
2023/08/16 04:54:59;;;;;;;2.78;2.53;;;;;;;;;;5006159;28;20060;-80
2023/08/16 04:57:25;;;;;;;7.75;2.70;;;;;;;;;;5008734;28;20092;-79
2023/08/16 04:59:51;;;;;;;4.28;2.55;;;;;;;;;;5006428;28;20049;-80
2023/08/16 05:02:16;;;;;;;4.97;2.80;;;;;;;;;;5003977;28;20022;-79
2023/08/16 05:04:42;;;;;;;5.45;2.97;;;;;;;;;;5003299;28;20036;-79
2023/08/16 05:07:08;;;;;;;3.90;2.83;;;;;;;;;;5007974;28;20073;-80
2023/08/16 05:09:35;;;;;;;6.13;3.05;;;;;;;;;;5009923;28;20038;-80
2023/08/16 05:12:02;;;;;;;4.45;2.55;;;;;;;;;;5010224;28;20041;-78
2023/08/16 05:14:27;;;;;;;4.47;3.17;;;;;;;;;;5007501;28;20474;-78
2023/08/16 05:16:53;;;;;;;3.60;2.90;;;;;;;;;;5003629;28;20030;-80
2023/08/16 05:19:19;;;;;;;8.35;3.40;;;;;;;;;;5008012;28;20030;-78
2023/08/16 05:21:57;;;;;;;25.10;4.47;;;;;;;;;;5002666;28;20038;-76
2023/08/16 05:24:23;;;;;;;8.68;4.35;;;;;;;;;;5003042;28;20107;-83
2023/08/16 05:26:49;;;;;;;10.05;3.67;;;;;;;;;;4997748;28;20172;-84
2023/08/16 05:29:15;;;;;;;4.15;2.97;;;;;;;;;;5005726;28;20030;-83
2023/08/16 05:31:41;;;;;;;4.95;3.20;;;;;;;;;;5003169;28;20391;-76
2023/08/16 05:34:07;;;;;;;12.20;3.42;;;;;;;;;;5003136;28;20021;-81
2023/08/16 05:36:34;;;;;;;5.10;3.28;;;;;;;;;;4998023;28;20030;-79
2023/08/16 05:38:59;;;;;;;5.38;3.60;;;;;;;;;;4999882;28;20044;-78
2023/08/16 05:41:25;;;;;;;6.20;3.50;;;;;;;;;;5002796;28;20025;-78
2023/08/16 05:43:51;;;;;;;4.55;3.05;;;;;;;;;;4996761;28;20084;-75
2023/08/16 05:46:17;;;;;;;5.10;3.25;;;;;;;;;;5002269;28;20033;-77
2023/08/16 05:48:44;;;;;;;6.38;3.03;;;;;;;;;;5007259;28;20041;-78
2023/08/16 05:51:09;;;;;;;5.55;3.42;;;;;;;;;;4999577;28;20033;-80
2023/08/16 05:53:35;;;;;;;5.53;3.47;;;;;;;;;;5002328;28;20018;-84
2023/08/16 05:56:02;;;;;;;9.93;3.78;;;;;;;;;;5003442;28;20026;-77
2023/08/16 05:58:28;;;;;;;8.60;3.90;;;;;;;;;;5006363;28;20379;-78
2023/08/16 06:00:54;;;;;;;5.80;3.67;;;;;;;;;;5009732;28;20399;-77
2023/08/16 06:03:20;;;;;;;3.97;3.20;;;;;;;;;;4999909;28;20181;-76
2023/08/16 06:05:46;;;;;;;9.07;4.03;;;;;;;;;;5004781;28;20084;-77
2023/08/16 06:08:12;;;;;;;4.78;3.00;;;;;;;;;;5001357;28;20029;-77
2023/08/16 06:10:38;;;;;;;4.68;3.13;;;;;;;;;;5007833;28;20029;-77
2023/08/16 06:13:04;;;;;;;7.68;3.17;;;;;;;;;;5011161;28;20026;-77
2023/08/16 06:15:30;;;;;;;7.05;3.78;;;;;;;;;;5004200;28;20037;-77
2023/08/16 06:17:56;;;;;;;5.93;3.80;;;;;;;;;;5005615;28;20078;-76
2023/08/16 06:20:22;;;;;;;5.50;3.35;;;;;;;;;;5010074;28;20022;-77
2023/08/16 06:22:47;;;;;;;5.72;3.67;;;;;;;;;;5004286;28;20037;-83
2023/08/16 06:25:13;;;;;;;5.63;3.15;;;;;;;;;;5012097;28;20060;-83
2023/08/16 06:27:40;;;;;;;5.90;3.47;;;;;;;;;;5005070;28;20041;-80
2023/08/16 06:30:06;;;;;;;9.35;3.58;;;;;;;;;;5010416;28;20462;-79
2023/08/16 06:32:32;;;;;;;10.73;2.83;;;;;;;;;;5014561;28;20431;-80
2023/08/16 06:34:58;;;;;;;10.82;3.30;;;;;;;;;;5006386;28;20033;-77
2023/08/16 06:37:24;;;;;;;2.85;2.45;;;;;;;;;;5012267;28;20025;-79
2023/08/16 06:39:50;;;;;;;7.68;3.10;;;;;;;;;;5005644;28;20387;-78
2023/08/16 06:42:16;;;;;;;2.88;2.58;;;;;;;;;;5009120;28;20041;-79
2023/08/16 06:44:42;;;;;;;4.25;2.65;;;;;;;;;;5010246;28;20141;-81
2023/08/16 06:47:08;;;;;;;6.93;2.53;;;;;;;;;;5007434;28;20029;-80
2023/08/16 06:49:34;;;;;;;3.00;2.63;;;;;;;;;;5007032;28;20060;-79
2023/08/16 06:52:00;;;;;;;4.50;2.63;;;;;;;;;;5014288;28;20018;-78
2023/08/16 06:54:26;;;;;;;4.60;2.65;;;;;;;;;;5014079;28;20013;-80
2023/08/16 06:56:57;;;;;;;5.35;2.90;;;;;;;;;;5013803;28;20034;-79
2023/08/16 06:59:23;;;;;;;;;;;;;;;;;;5012440;28;20033;-79
2023/08/16 07:01:50;;;;;;;2.78;2.20;;;;;;;;;;5005341;28;19917;-80
2023/08/16 07:04:16;;;;;;;3.30;3.00;;;;;;;;;;5008289;28;20030;-79
2023/08/16 07:06:42;;;;;;;3.28;2.25;;;;;;;;;;5013801;28;20037;-82
2023/08/16 07:09:08;;;;;;;3.30;2.65;;;;;;;;;;5009160;28;20113;-78
2023/08/16 07:11:34;;;;;;;5.82;2.70;;;;;;;;;;5007123;28;20399;-79
2023/08/16 07:14:00;;;;;;;4.43;2.67;;;;;;;;;;5007151;28;20585;-79
2023/08/16 07:16:26;;;;;;;6.03;2.60;;;;;;;;;;5008361;28;20061;-78
2023/08/16 07:18:52;;;;;;;4.15;2.58;;;;;;;;;;5008026;28;20014;-78
2023/08/16 07:21:18;;;;;;;2.33;2.13;;;;;;;;;;5013179;28;20368;-76
2023/08/16 07:23:44;;;;;;;3.28;2.50;;;;;;;;;;5021189;28;20044;-76
2023/08/16 07:26:10;;;;;;;4.40;3.08;;;;;;;;;;5012525;28;20496;-76
2023/08/16 07:28:36;;;;;;;11.30;3.22;;;;;;;;;;5013371;28;20033;-75
2023/08/16 07:31:02;;;;;;;3.67;2.60;;;;;;;;;;5004189;28;20433;-77
2023/08/16 07:33:30;;;;;;;6.95;3.28;;;;;;;;;;5010188;28;20093;-80
2023/08/16 07:36:00;;;;;;;3.67;2.83;;;;;;;;;;5005888;28;20046;-78
2023/08/16 07:38:25;;;;;;;3.53;2.40;;;;;;;;;;5002338;28;20394;-79
2023/08/16 07:40:51;;;;;;;3.40;2.63;;;;;;;;;;5006352;28;20026;-79
2023/08/16 07:43:17;;;;;;;4.50;2.92;;;;;;;;;;5010515;28;20026;-82
2023/08/16 07:45:43;;;;;;;3.13;2.47;;;;;;;;;;5005957;28;20045;-80
2023/08/16 07:48:09;;;;;;;3.72;2.67;;;;;;;;;;5012239;28;20034;-79
2023/08/16 07:50:36;;;;;;;3.95;2.85;;;;;;;;;;4999286;28;20030;-79
2023/08/16 07:53:02;;;;;;;5.90;3.17;;;;;;;;;;5010881;28;20045;-79
2023/08/16 07:55:32;;;;;;;2.72;2.20;;;;;;;;;;5005142;28;20034;-80
2023/08/16 07:57:58;;;;;;;2.88;2.13;;;;;;;;;;5004909;28;20014;-81
2023/08/16 08:00:24;;;;;;;3.15;2.38;;;;;;;;;;5008450;28;20048;-81
2023/08/16 08:02:51;;;;;;;18.83;3.15;;;;;;;;;;5004826;28;20057;-87
2023/08/16 08:05:17;;;;;;;3.92;2.58;;;;;;;;;;5009860;28;20061;-83
2023/08/16 08:07:43;;;;;;;3.92;3.00;;;;;;;;;;5005584;28;20029;-83
2023/08/16 08:10:10;;;;;;;2.78;2.40;;;;;;;;;;5009419;28;20422;-86
2023/08/16 08:12:35;;;;;;;2.33;2.13;;;;;;;;;;5013983;28;20030;-89
2023/08/16 08:15:02;;;;;;;4.75;2.53;;;;;;;;;;5008901;28;20495;-79
2023/08/16 08:17:28;;;;;;;2.83;2.20;;;;;;;;;;5001992;28;20014;-90
2023/08/16 08:19:53;;;;;;;3.22;2.22;;;;;;;;;;5020332;28;20032;-92
2023/08/16 08:22:19;;;;;;;3.50;2.70;;;;;;;;;;5010626;28;20025;-79
2023/08/16 08:24:45;;;;;;;2.78;2.20;;;;;;;;;;5010889;28;20053;-89
2023/08/16 08:27:11;;;;;;;2.92;2.22;;;;;;;;;;5013307;28;20088;-85
2023/08/16 08:29:39;;;;;;;3.03;2.13;;;;;;;;;;5007599;28;20049;-78
2023/08/16 08:32:05;;;;;;;2.95;2.45;;;;;;;;;;5003464;28;20035;-88
2023/08/16 08:34:31;;;;;;;5.35;2.83;;;;;;;;;;5003555;28;20066;-85
2023/08/16 08:36:58;;;;;;;4.07;2.22;;;;;;;;;;5004143;28;20033;-89
2023/08/16 08:39:26;;;;;;;6.45;2.85;;;;;;;;;;5009289;28;20034;-85
2023/08/16 08:41:52;;;;;;;2.67;1.83;;;;;;;;;;5007355;28;20113;-89
2023/08/16 08:44:19;;;;;;;2.58;2.03;;;;;;;;;;5004869;28;20041;-86
2023/08/16 08:46:46;;;;;;;2.17;1.83;;;;;;;;;;5006850;28;20116;-82
2023/08/16 08:49:14;;;;;;;2.78;2.10;;;;;;;;;;5006487;28;20072;-78
2023/08/16 08:51:41;;;;;;;3.95;2.50;;;;;;;;;;5001480;28;20027;-80
2023/08/16 08:54:07;;;;;;;2.85;2.10;;;;;;;;;;5003185;28;20030;-78
2023/08/16 08:56:34;;;;;;;6.15;2.08;;;;;;;;;;5002615;28;20030;-79
2023/08/16 08:59:04;;;;;;;3.03;1.88;;;;;;;;;;5006650;28;20038;-78
2023/08/16 09:01:32;;;;;;;12.13;2.38;;;;;;;;;;5005184;28;20065;-79
2023/08/16 09:04:03;;;;;;;5.35;2.22;;;;;;;;;;5005362;28;20060;-79
2023/08/16 09:06:29;;;;;;;;;;;;;;;;;;5019338;28;20023;-78
2023/08/16 09:08:56;;;;;;;12.68;3.15;;;;;;;;;;5007569;28;19944;-79
2023/08/16 09:11:24;;;;;;;6.65;2.70;;;;;;;;;;5002448;28;20030;-79
2023/08/16 09:13:51;;;;;;;3.97;2.33;;;;;;;;;;5006883;28;20018;-79
2023/08/16 09:16:17;;;;;;;3.45;2.15;;;;;;;;;;5004598;28;20041;-80
2023/08/16 09:18:48;;;;;;;13.15;3.83;;;;;;;;;;5003193;28;20029;-80
2023/08/16 09:21:16;;;;;;;7.85;2.30;;;;;;;;;;5000842;28;20026;-80
2023/08/16 09:23:43;;;;;;;5.70;2.75;;;;;;;;;;5011208;28;20025;-79
2023/08/16 09:26:17;;;;;;;40.30;7.65;;;;;;;;;;5004213;28;20034;-79
2023/08/16 09:28:43;;;;;;;45.28;6.15;;;;;;;;;;4997641;28;20033;-79
2023/08/16 09:31:09;;;;;;;45.05;8.20;;;;;;;;;;5002109;28;20037;-80
2023/08/16 09:33:35;;;;;;;29.52;6.65;;;;;;;;;;5008963;28;20028;-77
2023/08/16 09:36:03;;;;;;;25.52;4.65;;;;;;;;;;5007707;28;20018;-79
2023/08/16 09:38:29;;;;;;;22.98;4.63;;;;;;;;;;5006091;28;20026;-86
2023/08/16 09:40:55;;;;;;;32.50;7.15;;;;;;;;;;5003486;28;20034;-80
2023/08/16 09:43:21;;;;;;;17.80;4.40;;;;;;;;;;5005951;28;20159;-81
2023/08/16 09:45:53;;;;;;;17.92;4.68;;;;;;;;;;5007776;28;20109;-89
2023/08/16 09:48:21;;;;;;;22.92;7.80;;;;;;;;;;5014750;28;20508;-84
2023/08/16 09:50:50;;;;;;;74.68;9.00;;;;;;;;;;5001889;28;20117;-76
2023/08/16 09:53:16;;;;;;;26.77;8.45;;;;;;;;;;4992798;28;20114;-80
2023/08/16 09:55:43;;;;;;;247.98;31.42;;;;;;;;;;5006418;28;20121;-81
2023/08/16 09:58:11;;;;;;;198.75;26.55;;;;;;;;;;5006338;28;20042;-79
2023/08/16 10:00:37;;;;;;;144.70;25.80;;;;;;;;;;5009163;28;20044;-79
2023/08/16 10:03:04;;;;;;;121.88;19.17;;;;;;;;;;5004233;28;20038;-80
2023/08/16 10:05:30;;;;;;;120.75;20.27;;;;;;;;;;5000562;28;20048;-80
2023/08/16 10:08:00;;;;;;;104.95;15.75;;;;;;;;;;5004810;28;20390;-83
2023/08/16 10:10:26;;;;;;;88.07;13.35;;;;;;;;;;5005954;28;20030;-81
2023/08/16 10:12:52;;;;;;;47.67;8.65;;;;;;;;;;5001123;28;20069;-81
2023/08/16 10:15:18;;;;;;;40.85;6.93;;;;;;;;;;5000037;28;20478;-84
2023/08/16 10:17:45;;;;;;;23.52;6.75;;;;;;;;;;5005321;28;20056;-84
2023/08/16 10:20:17;;;;;;;24.98;4.15;;;;;;;;;;4999108;28;20048;-82
2023/08/16 10:22:45;;;;;;;181.68;17.45;;;;;;;;;;5008378;28;20041;-83
2023/08/16 10:25:17;;;;;;;591.88;82.75;;;;;;;;;;5007290;28;20040;-90
2023/08/16 10:27:44;;;;;;;485.30;71.30;;;;;;;;;;5005666;28;20022;-85
2023/08/16 10:30:13;;;;;;;309.17;35.42;;;;;;;;;;4999826;28;20031;-92
2023/08/16 10:32:43;;;;;;;228.15;32.72;;;;;;;;;;5010600;28;20030;-82
2023/08/16 10:35:09;;;;;;;235.30;32.45;;;;;;;;;;4998631;28;20018;-87
2023/08/16 10:37:35;;;;;;;179.02;27.10;;;;;;;;;;5002282;28;20137;-87
2023/08/16 10:40:01;;;;;;;157.75;18.83;;;;;;;;;;5001092;28;20084;-86
2023/08/16 10:42:28;;;;;;;209.18;26.08;;;;;;;;;;5006891;28;20022;-82
2023/08/16 10:44:54;;;;;;;147.35;24.02;;;;;;;;;;5004202;28;20040;-85
2023/08/16 10:47:29;;;;;;;119.68;19.15;;;;;;;;;;5000562;28;20034;-86
2023/08/16 10:49:55;;;;;;;148.90;21.00;;;;;;;;;;5003649;28;20030;-79
2023/08/16 10:52:28;;;;;;;80.10;12.63;;;;;;;;;;5013858;28;20220;-77
2023/08/16 10:54:54;;;;;;;38.75;6.63;;;;;;;;;;5006256;28;20036;-80
2023/08/16 10:57:25;;;;;;;89.30;11.73;;;;;;;;;;5006885;28;20091;-84
2023/08/16 11:00:01;;;;;;;25.40;4.93;;;;;;;;;;5008369;28;20096;-82
2023/08/16 11:02:30;;;;;;;22.30;4.38;;;;;;;;;;5009775;28;20037;-80
2023/08/16 11:04:56;;;;;;;16.58;3.33;;;;;;;;;;5011014;28;20494;-79
2023/08/16 11:07:38;;;;;;;13.10;4.07;;;;;;;;;;5010592;28;20033;-85
2023/08/16 11:10:04;;;;;;;70.53;18.60;;;;;;;;;;5004510;28;20276;-78
2023/08/16 11:12:31;;;;;;;55.25;10.98;;;;;;;;;;5004782;28;20447;-80
2023/08/16 11:14:57;;;;;;;31.35;9.00;;;;;;;;;;5009328;28;20272;-76
2023/08/16 11:17:28;;;;;;;32.17;6.88;;;;;;;;;;5004918;28;20766;-77
2023/08/16 11:19:54;;;;;;;14.52;4.95;;;;;;;;;;5002307;28;20052;-80
2023/08/16 11:22:21;;;;;;;24.08;4.72;;;;;;;;;;5008339;28;20042;-84
2023/08/16 11:24:48;;;;;;;13.02;3.50;;;;;;;;;;5004862;28;20084;-80
2023/08/16 11:27:19;;;;;;;8.43;2.60;;;;;;;;;;5003715;28;20111;-82
2023/08/16 11:29:52;;;;;;;9.77;2.20;;;;;;;;;;5023903;28;20692;-79
2023/08/16 11:32:37;;;;;;;9.35;2.75;;;;;;;;;;5007477;28;20041;-79
2023/08/16 11:35:09;;;;;;;6.43;2.33;;;;;;;;;;5009416;28;20022;-79
2023/08/16 11:37:36;;;;;;;2.03;1.80;;;;;;;;;;5005482;28;20037;-81
2023/08/16 11:40:07;;;;;;;3.67;1.80;;;;;;;;;;4993320;28;20193;-81
2023/08/16 11:42:33;;;;;;;3.63;2.10;;;;;;;;;;5004498;28;20076;-81
2023/08/16 11:44:59;;;;;;;6.68;1.73;;;;;;;;;;5003609;28;20042;-84
2023/08/16 11:47:26;;;;;;;5.30;1.80;;;;;;;;;;5001077;28;20058;-78
2023/08/16 11:49:52;;;;;;;20.48;3.67;;;;;;;;;;5004864;28;20034;-79
2023/08/16 11:52:21;;;;;;;1.67;1.45;;;;;;;;;;5005870;28;20057;-79
2023/08/16 11:54:48;;;;;;;1.95;1.50;;;;;;;;;;5006451;28;20034;-79
2023/08/16 11:57:18;;;;;;;8.98;2.22;;;;;;;;;;5010928;28;20115;-81
2023/08/16 11:59:54;;;;;;;2.35;1.95;;;;;;;;;;5005857;28;20095;-80
2023/08/16 12:02:20;;;;;;;2.40;1.73;;;;;;;;;;5006692;28;20087;-84
2023/08/16 12:04:46;;;;;;;3.92;1.58;;;;;;;;;;5005678;28;20722;-75
2023/08/16 12:07:12;;;;;;;3.05;1.85;;;;;;;;;;5005243;28;20034;-80
2023/08/16 12:09:41;;;;;;;3.22;1.98;;;;;;;;;;5005765;28;20084;-79
2023/08/16 12:12:08;;;;;;;2.42;1.75;;;;;;;;;;5008363;28;20548;-79
2023/08/16 12:14:34;;;;;;;3.65;2.45;;;;;;;;;;5002684;28;20486;-76
2023/08/16 12:17:00;;;;;;;2.17;1.83;;;;;;;;;;5008949;28;20022;-85
2023/08/16 12:19:26;;;;;;;2.97;2.05;;;;;;;;;;5008074;28;20109;-82
2023/08/16 12:21:53;;;;;;;3.10;1.48;;;;;;;;;;5005517;28;20030;-76
2023/08/16 12:24:19;;;;;;;3.30;1.80;;;;;;;;;;5005473;28;20791;-76
2023/08/16 12:26:45;;;;;;;1.90;1.67;;;;;;;;;;5004782;28;20042;-79
2023/08/16 12:29:11;;;;;;;2.13;1.88;;;;;;;;;;4998064;28;20038;-74
2023/08/16 12:31:37;;;;;;;2.35;1.48;;;;;;;;;;5008165;28;20030;-80
2023/08/16 12:34:03;;;;;;;6.25;2.00;;;;;;;;;;5004649;28;20025;-78
2023/08/16 12:36:29;;;;;;;7.30;2.17;;;;;;;;;;5004692;28;20040;-78
2023/08/16 12:38:55;;;;;;;5.47;1.80;;;;;;;;;;5006403;28;20026;-78
2023/08/16 12:41:21;;;;;;;4.88;2.08;;;;;;;;;;5008920;28;20041;-77
2023/08/16 12:43:46;;;;;;;2.70;2.08;;;;;;;;;;5006054;28;20029;-81
2023/08/16 12:46:12;;;;;;;3.33;2.10;;;;;;;;;;5005509;28;20045;-78
2023/08/16 12:48:38;;;;;;;6.50;2.00;;;;;;;;;;5009720;28;20033;-77
2023/08/16 12:51:05;;;;;;;7.03;2.13;;;;;;;;;;5004690;28;20274;-83
2023/08/16 12:53:31;;;;;;;7.22;2.35;;;;;;;;;;5007859;28;20398;-77
2023/08/16 12:55:58;;;;;;;3.03;2.20;;;;;;;;;;5007189;28;20502;-78
2023/08/16 12:58:24;;;;;;;1.65;1.55;;;;;;;;;;5007006;28;20037;-81
2023/08/16 13:00:50;;;;;;;2.33;1.70;;;;;;;;;;5009224;28;20018;-76
2023/08/16 13:03:16;;;;;;;4.03;1.55;;;;;;;;;;5002876;28;20034;-77
2023/08/16 13:05:43;;;;;;;2.42;1.80;;;;;;;;;;5003965;28;20022;-75
2023/08/16 13:08:12;;;;;;;6.25;2.17;;;;;;;;;;5002824;28;20091;-76
2023/08/16 13:10:39;;;;;;;2.20;1.67;;;;;;;;;;5005178;28;20038;-76
2023/08/16 13:13:06;;;;;;;3.17;1.92;;;;;;;;;;5004781;28;20714;-77
2023/08/16 13:15:33;;;;;;;4.82;1.70;;;;;;;;;;5009262;28;20113;-76
2023/08/16 13:17:59;;;;;;;4.40;1.95;;;;;;;;;;5008611;28;20026;-78
2023/08/16 13:20:26;;;;;;;6.32;2.45;;;;;;;;;;5002646;28;20060;-79
2023/08/16 13:22:52;;;;;;;6.38;2.55;;;;;;;;;;5005412;28;20022;-78
2023/08/16 13:25:18;;;;;;;2.92;1.95;;;;;;;;;;5007247;28;20041;-80
2023/08/16 13:28:08;;;;;;;6.93;1.85;;;;;;;;;;5003976;28;20517;-77
2023/08/16 13:30:37;;;;;;;3.38;1.73;;;;;;;;;;5003698;28;20072;-77
2023/08/16 13:33:04;;;;;;;2.78;1.55;;;;;;;;;;5010996;28;20739;-78
2023/08/16 13:35:30;;;;;;;3.35;2.17;;;;;;;;;;5007040;28;20379;-80
2023/08/16 13:37:56;;;;;;;2.70;2.15;;;;;;;;;;5009499;28;20029;-78
2023/08/16 13:40:22;;;;;;;1.92;1.70;;;;;;;;;;5003624;28;20473;-78
2023/08/16 13:42:47;;;;;;;2.22;1.70;;;;;;;;;;5005644;28;20155;-76
2023/08/16 13:45:13;;;;;;;2.10;1.52;;;;;;;;;;5003533;28;20025;-77
2023/08/16 13:47:39;;;;;;;2.28;2.08;;;;;;;;;;5012593;28;20018;-77
2023/08/16 13:50:06;;;;;;;2.38;1.40;;;;;;;;;;5010484;28;20026;-79
2023/08/16 13:52:31;;;;;;;1.98;1.58;;;;;;;;;;5001407;28;20470;-81
2023/08/16 13:54:57;;;;;;;4.20;2.17;;;;;;;;;;5006598;28;20022;-79
2023/08/16 13:57:23;;;;;;;5.90;1.58;;;;;;;;;;5003585;28;20026;-78
2023/08/16 13:59:49;;;;;;;2.88;1.52;;;;;;;;;;5006095;28;20038;-81
2023/08/16 14:02:15;;;;;;;1.92;1.65;;;;;;;;;;5012595;28;20036;-78
2023/08/16 14:04:42;;;;;;;1.48;1.35;;;;;;;;;;5006267;28;20026;-75
2023/08/16 14:07:08;;;;;;;2.45;1.65;;;;;;;;;;5003316;28;20505;-78
2023/08/16 14:09:34;;;;;;;1.80;1.63;;;;;;;;;;5005477;28;20022;-78
2023/08/16 14:12:00;;;;;;;2.30;1.75;;;;;;;;;;5005611;28;20483;-79
2023/08/16 14:14:26;;;;;;;1.50;1.40;;;;;;;;;;5002929;28;20061;-79
2023/08/16 14:16:52;;;;;;;2.60;1.77;;;;;;;;;;4998308;28;20046;-79
2023/08/16 14:19:18;;;;;;;2.17;1.40;;;;;;;;;;5002496;28;20377;-78
2023/08/16 14:21:43;;;;;;;3.75;1.92;;;;;;;;;;5011468;28;20442;-78
2023/08/16 14:24:09;;;;;;;2.58;1.52;;;;;;;;;;5005710;28;20081;-78
2023/08/16 14:26:35;;;;;;;2.10;1.42;;;;;;;;;;5004474;28;20387;-77
2023/08/16 14:29:04;;;;;;;1.90;1.33;;;;;;;;;;5005216;28;20085;-77
2023/08/16 14:31:30;;;;;;;2.22;1.90;;;;;;;;;;5008452;28;20068;-79
2023/08/16 14:33:56;;;;;;;1.73;1.55;;;;;;;;;;5008891;28;20390;-78
2023/08/16 14:36:22;;;;;;;1.90;1.63;;;;;;;;;;5007105;28;20038;-79
2023/08/16 14:38:48;;;;;;;2.13;1.60;;;;;;;;;;5010428;28;21955;-78